Time;durP1;ratioP1;P1;durP2;ratioP2;P2;SDS_P1;SDS_P2;PMS_P1;PMS_P2;Temp;Humidity;BMP_temperature;BMP_pressure;BME280_temperature;BME280_humidity;BME280_pressure;Samples;Min_cycle;Max_cycle;Signal;HPM_P1;HPM_P2
2021/03/08 00:00:46;;;;;;;4.43;3.50;;;20.00;46.90;;;;;;6198815;28;20061;-69
2021/03/08 00:03:47;;;;;;;4.22;3.05;;;20.00;46.90;;;;;;6199082;28;20027;-69
2021/03/08 00:06:47;;;;;;;5.45;3.80;;;20.00;46.90;;;;;;6198561;28;20050;-70
2021/03/08 00:09:48;;;;;;;4.22;3.58;;;20.00;46.90;;;;;;6198658;28;20429;-69
2021/03/08 00:12:49;;;;;;;5.00;3.50;;;20.00;46.90;;;;;;6164129;28;20031;-69
2021/03/08 00:15:50;;;;;;;4.22;3.30;;;20.00;46.90;;;;;;6174208;28;20054;-69
2021/03/08 00:18:50;;;;;;;4.68;3.72;;;20.00;46.90;;;;;;6198961;28;20041;-69
2021/03/08 00:21:51;;;;;;;4.38;3.42;;;20.00;46.90;;;;;;6198453;28;20045;-69
2021/03/08 00:24:52;;;;;;;6.15;3.65;;;20.00;46.90;;;;;;6198362;28;20057;-69
2021/03/08 00:27:52;;;;;;;3.97;3.20;;;20.00;47.00;;;;;;6198404;28;20023;-70
2021/03/08 00:30:53;;;;;;;3.65;3.05;;;20.00;47.00;;;;;;6198274;28;20085;-69
2021/03/08 00:33:53;;;;;;;5.18;3.75;;;20.00;47.00;;;;;;6198554;28;20046;-69
2021/03/08 00:36:54;;;;;;;4.80;3.45;;;20.00;46.90;;;;;;6198323;28;20026;-69
2021/03/08 00:39:54;;;;;;;4.38;3.40;;;20.00;46.90;;;;;;6198480;28;20493;-69
2021/03/08 00:42:55;;;;;;;5.07;3.58;;;20.00;46.90;;;;;;6198018;28;20034;-70
2021/03/08 00:45:55;;;;;;;4.57;3.58;;;19.90;46.90;;;;;;6197823;28;20030;-69
2021/03/08 00:48:56;;;;;;;4.82;3.67;;;19.90;46.90;;;;;;6197941;28;20045;-69
2021/03/08 00:51:56;;;;;;;4.53;3.35;;;20.00;47.00;;;;;;6197833;28;20473;-69
2021/03/08 00:54:57;;;;;;;5.15;3.78;;;20.00;46.90;;;;;;6197578;28;20571;-68
2021/03/08 00:57:57;;;;;;;4.80;3.60;;;20.00;46.90;;;;;;6196519;28;20105;-69
2021/03/08 01:00:58;;;;;;;4.20;3.30;;;19.90;46.80;;;;;;6197708;28;20076;-69
2021/03/08 01:03:58;;;;;;;5.13;3.70;;;19.90;46.80;;;;;;6197668;28;20022;-69
2021/03/08 01:06:59;;;;;;;5.25;3.88;;;19.90;46.80;;;;;;6197132;28;20065;-69
2021/03/08 01:10:00;;;;;;;4.97;3.65;;;19.90;46.90;;;;;;6197681;28;20117;-69
2021/03/08 01:13:00;;;;;;;5.10;3.65;;;19.90;46.90;;;;;;6197028;28;20031;-69
2021/03/08 01:16:01;;;;;;;4.80;3.47;;;19.90;46.80;;;;;;6197133;28;20138;-69
2021/03/08 01:19:02;;;;;;;4.50;3.38;;;19.90;46.80;;;;;;6197190;28;20361;-69
2021/03/08 01:22:02;;;;;;;5.43;3.53;;;19.90;46.80;;;;;;6184332;28;20034;-69
2021/03/08 01:25:09;;;;;;;4.57;3.35;;;19.90;46.80;;;;;;6197345;28;20046;-69
2021/03/08 01:28:10;;;;;;;3.75;3.03;;;19.90;46.80;;;;;;6196876;28;20571;-70
2021/03/08 01:31:10;;;;;;;5.13;3.75;;;19.90;46.80;;;;;;6197027;28;20057;-69
2021/03/08 01:34:11;;;;;;;4.07;2.85;;;19.90;46.90;;;;;;6167255;28;20027;-69
2021/03/08 01:37:11;;;;;;;4.20;3.58;;;19.90;46.80;;;;;;6167400;28;20038;-69
2021/03/08 01:40:14;;;;;;;5.03;3.22;;;19.90;46.80;;;;;;6196883;28;20469;-69
2021/03/08 01:43:14;;;;;;;4.00;2.97;;;19.90;46.80;;;;;;6196449;28;20026;-69
2021/03/08 01:46:15;;;;;;;4.20;3.20;;;19.90;46.80;;;;;;6196174;28;20038;-68
2021/03/08 01:49:15;;;;;;;4.18;3.05;;;19.90;46.80;;;;;;6172712;28;20039;-69
2021/03/08 01:52:16;;;;;;;4.32;3.15;;;19.90;46.90;;;;;;6177797;28;20038;-70
2021/03/08 01:55:17;;;;;;;5.15;3.70;;;19.90;46.90;;;;;;6197090;28;20077;-69
2021/03/08 01:58:18;;;;;;;4.20;3.13;;;19.90;46.80;;;;;;6196294;28;20034;-70
2021/03/08 02:01:19;;;;;;;4.13;3.03;;;19.90;46.80;;;;;;6196264;28;20700;-69
2021/03/08 02:04:19;;;;;;;5.18;3.88;;;19.90;46.90;;;;;;6196289;28;20053;-69
2021/03/08 02:07:20;;;;;;;4.20;3.25;;;19.90;46.80;;;;;;6170766;28;20502;-69
2021/03/08 02:10:21;;;;;;;4.75;3.45;;;19.90;46.80;;;;;;6195657;28;20471;-69
2021/03/08 02:14:05;;;;;;;3.95;3.20;;;19.90;46.80;;;;;;6195888;28;20032;-69
2021/03/08 02:17:12;;;;;;;4.60;3.10;;;19.90;46.80;;;;;;6189053;28;20081;-70
2021/03/08 02:20:37;;;;;;;4.32;3.35;;;19.90;46.80;;;;;;6195717;28;20397;-69
2021/03/08 02:23:56;;;;;;;3.45;2.92;;;19.90;46.90;;;;;;6195482;28;20031;-70
2021/03/08 02:27:03;;;;;;;4.07;3.08;;;19.90;46.80;;;;;;6195813;28;20041;-69
2021/03/08 02:30:37;;;;;;;3.60;2.63;;;19.90;46.80;;;;;;6195239;28;20034;-69
2021/03/08 02:33:40;;;;;;;3.60;2.90;;;19.90;46.80;;;;;;6192936;28;20381;-69
2021/03/08 02:36:46;;;;;;;3.65;2.83;;;19.90;46.80;;;;;;6195870;28;20028;-69
2021/03/08 02:39:51;;;;;;;3.90;3.03;;;19.90;46.90;;;;;;6195432;28;20406;-69
2021/03/08 02:42:55;;;;;;;4.43;3.33;;;19.90;46.80;;;;;;6195191;28;20033;-69
2021/03/08 02:45:59;;;;;;;5.10;3.58;;;19.90;46.80;;;;;;6195298;28;20041;-70
2021/03/08 02:49:21;;;;;;;4.55;3.38;;;19.90;46.80;;;;;;6194899;28;20404;-69
2021/03/08 02:52:25;;;;;;;4.65;3.28;;;19.90;46.80;;;;;;6195527;28;20034;-69
2021/03/08 02:55:30;;;;;;;4.32;3.08;;;19.90;46.80;;;;;;6194963;28;20089;-69
2021/03/08 02:58:32;;;;;;;4.20;2.97;;;19.90;46.90;;;;;;6194927;28;20493;-69
2021/03/08 03:01:35;;;;;;;3.80;3.15;;;19.90;46.80;;;;;;6195031;28;20092;-69
2021/03/08 03:04:38;;;;;;;4.35;3.10;;;19.90;47.60;;;;;;6194876;28;20031;-70
2021/03/08 03:07:44;;;;;;;3.88;3.20;;;19.90;46.80;;;;;;6194913;28;20030;-69
2021/03/08 03:10:44;;;;;;;3.53;2.70;;;19.80;46.80;;;;;;6194447;28;20075;-69
2021/03/08 03:13:47;;;;;;;4.63;3.50;;;19.90;46.80;;;;;;6194863;28;20022;-69
2021/03/08 03:16:53;;;;;;;3.67;2.92;;;19.90;46.80;;;;;;6194809;28;20061;-69
2021/03/08 03:19:58;;;;;;;3.67;2.75;;;19.80;46.80;;;;;;6194742;28;20040;-69
2021/03/08 03:22:59;;;;;;;;;;;19.80;46.80;;;;;;6200385;28;20030;-69
2021/03/08 03:26:00;;;;;;;4.07;3.03;;;19.80;46.70;;;;;;6196241;28;19906;-69
2021/03/08 03:29:04;;;;;;;5.03;3.25;;;19.80;46.80;;;;;;6181557;28;20034;-69
2021/03/08 03:32:05;;;;;;;3.60;2.80;;;19.80;46.80;;;;;;6199744;28;20106;-69
2021/03/08 03:35:10;;;;;;;3.30;2.78;;;19.80;46.80;;;;;;6199421;28;20231;-70
2021/03/08 03:38:12;;;;;;;4.35;3.05;;;19.80;46.70;;;;;;6199540;28;20106;-71
2021/03/08 03:41:12;;;;;;;3.33;2.80;;;19.80;46.80;;;;;;6199347;28;20031;-69
2021/03/08 03:44:13;;;;;;;4.15;2.97;;;19.80;46.80;;;;;;6199295;28;20068;-70
2021/03/08 03:47:16;;;;;;;3.95;2.63;;;19.90;46.80;;;;;;6178477;28;20031;-69
2021/03/08 03:50:19;;;;;;;4.85;3.30;;;19.80;46.80;;;;;;6178025;28;20038;-69
2021/03/08 03:53:19;;;;;;;3.63;3.10;;;19.80;46.80;;;;;;6199160;28;20025;-69
2021/03/08 03:56:25;;;;;;;3.72;2.67;;;19.80;46.70;;;;;;6198901;28;20452;-69
2021/03/08 03:59:41;;;;;;;3.72;2.92;;;19.80;46.80;;;;;;6199192;28;20029;-69
2021/03/08 04:02:51;;;;;;;;;;;19.80;46.70;;;;;;6199587;28;20263;-69
2021/03/08 04:05:55;;;;;;;3.65;2.78;;;19.80;46.70;;;;;;6198822;28;20341;-69
2021/03/08 04:08:58;;;;;;;4.38;2.88;;;19.90;46.80;;;;;;6199489;28;20053;-69
2021/03/08 04:11:59;;;;;;;4.22;3.30;;;19.80;46.80;;;;;;6199061;28;20331;-69
2021/03/08 04:15:08;;;;;;;4.45;3.25;;;19.80;46.70;;;;;;6198707;28;20465;-69
2021/03/08 04:18:11;;;;;;;3.72;2.92;;;19.80;46.70;;;;;;6198564;28;20080;-69
2021/03/08 04:21:13;;;;;;;3.97;2.80;;;19.80;46.70;;;;;;6198590;28;20109;-70
2021/03/08 04:24:16;;;;;;;3.65;3.20;;;19.80;46.70;;;;;;6198331;28;20064;-68
2021/03/08 04:27:17;;;;;;;4.00;2.90;;;19.80;46.80;;;;;;6198936;28;20450;-69
2021/03/08 04:30:19;;;;;;;3.70;2.67;;;19.80;46.70;;;;;;6198171;28;20140;-69
2021/03/08 04:33:19;;;;;;;3.60;2.90;;;19.80;46.80;;;;;;6198288;28;20493;-69
2021/03/08 04:36:21;;;;;;;4.22;3.17;;;19.80;46.70;;;;;;6176376;28;20034;-70
2021/03/08 04:39:22;;;;;;;3.40;2.80;;;19.80;46.70;;;;;;6150122;28;20031;-69
2021/03/08 04:42:23;;;;;;;3.42;2.80;;;19.80;46.70;;;;;;6196566;28;20097;-69
2021/03/08 04:45:25;;;;;;;2.90;2.28;;;19.80;46.70;;;;;;6197942;28;20493;-69
2021/03/08 04:48:27;;;;;;;3.20;2.65;;;19.80;46.70;;;;;;6197772;28;20034;-69
2021/03/08 04:51:30;;;;;;;4.32;2.95;;;19.80;46.70;;;;;;6198188;28;20018;-69
2021/03/08 04:54:31;;;;;;;3.40;2.72;;;19.80;46.70;;;;;;6197876;28;20023;-69
2021/03/08 04:57:33;;;;;;;3.90;3.08;;;19.80;46.70;;;;;;6197711;28;20033;-69
2021/03/08 05:00:37;;;;;;;3.35;2.58;;;19.80;46.70;;;;;;6197778;28;20027;-69
2021/03/08 05:03:38;;;;;;;3.58;2.60;;;19.80;46.70;;;;;;6196434;28;20037;-69
2021/03/08 05:06:40;;;;;;;3.63;2.65;;;19.80;46.70;;;;;;6197297;28;20489;-69
2021/03/08 05:09:41;;;;;;;3.85;2.67;;;19.80;46.60;;;;;;6197590;28;20117;-69
2021/03/08 05:12:42;;;;;;;4.47;3.03;;;19.80;46.70;;;;;;6197257;28;20496;-70
2021/03/08 05:15:43;;;;;;;4.13;2.78;;;19.80;46.60;;;;;;6197281;28;20065;-70
2021/03/08 05:18:46;;;;;;;3.85;2.90;;;19.80;46.60;;;;;;6197660;28;20022;-70
2021/03/08 05:21:48;;;;;;;2.90;2.35;;;19.80;46.50;;;;;;6197439;28;20038;-70
2021/03/08 05:24:50;;;;;;;3.58;2.65;;;19.80;46.60;;;;;;6197347;28;20026;-69
2021/03/08 05:27:52;;;;;;;3.65;2.72;;;19.80;46.50;;;;;;6197086;28;20030;-69
2021/03/08 05:30:55;;;;;;;3.75;2.92;;;19.80;46.50;;;;;;6175743;28;20575;-69
2021/03/08 05:34:00;;;;;;;3.25;2.60;;;19.80;46.50;;;;;;6196905;28;20433;-69
2021/03/08 05:37:02;;;;;;;3.67;2.63;;;19.80;46.50;;;;;;6196603;28;20053;-70
2021/03/08 05:40:10;;;;;;;4.15;2.90;;;19.90;46.60;;;;;;6196836;28;20030;-69
2021/03/08 05:43:13;;;;;;;3.85;2.90;;;19.80;46.40;;;;;;6191602;28;20030;-69
2021/03/08 05:46:33;;;;;;;3.55;2.70;;;19.80;46.50;;;;;;6167622;28;20113;-69
2021/03/08 05:49:53;;;;;;;3.38;2.30;;;19.90;46.50;;;;;;6184956;28;20351;-69
2021/03/08 05:53:03;;;;;;;4.47;2.55;;;19.90;46.50;;;;;;6186544;28;20452;-70
2021/03/08 05:56:22;;;;;;;3.03;2.20;;;19.90;46.50;;;;;;6181469;28;20026;-69
2021/03/08 05:59:37;;;;;;;3.97;2.72;;;19.90;46.60;;;;;;6152821;28;20714;-69
2021/03/08 06:03:01;;;;;;;4.25;2.53;;;19.90;46.60;;;;;;6185663;28;20036;-69
2021/03/08 06:06:11;;;;;;;4.30;2.60;;;19.90;46.60;;;;;;6190382;28;20022;-70
2021/03/08 06:09:25;;;;;;;3.67;2.83;;;19.90;46.60;;;;;;6193754;28;20470;-69
2021/03/08 06:12:31;;;;;;;8.05;2.88;;;19.90;46.60;;;;;;6194536;28;20030;-70
2021/03/08 06:15:35;;;;;;;3.95;2.70;;;19.90;46.60;;;;;;6193895;28;20065;-70
2021/03/08 06:18:44;;;;;;;3.78;2.58;;;19.90;46.60;;;;;;6193820;28;20034;-70
2021/03/08 06:21:47;;;;;;;3.47;2.50;;;19.90;46.60;;;;;;6193612;28;20031;-70
2021/03/08 06:24:48;;;;;;;3.30;2.35;;;19.90;46.70;;;;;;6194343;28;20049;-70
2021/03/08 06:27:49;;;;;;;2.95;2.25;;;19.90;46.70;;;;;;6193668;28;20057;-69
2021/03/08 06:30:50;;;;;;;3.67;2.70;;;19.90;46.70;;;;;;6194042;28;20046;-70
2021/03/08 06:33:50;;;;;;;2.67;2.22;;;19.90;46.70;;;;;;6192801;28;20036;-69
2021/03/08 06:36:53;;;;;;;3.45;2.55;;;20.00;46.80;;;;;;6193644;28;20420;-69
2021/03/08 06:39:53;;;;;;;3.95;2.78;;;20.00;46.80;;;;;;6178143;28;20031;-69
2021/03/08 06:42:54;;;;;;;4.60;2.70;;;20.00;46.80;;;;;;6191585;28;20168;-70
2021/03/08 06:45:56;;;;;;;4.40;2.92;;;20.00;46.90;;;;;;6172017;28;20397;-69
2021/03/08 06:48:56;;;;;;;5.93;2.80;;;20.00;46.80;;;;;;6160336;28;20109;-70
2021/03/08 06:52:02;;;;;;;3.67;2.60;;;20.00;47.50;;;;;;6161688;28;20023;-69
2021/03/08 06:55:03;;;;;;;3.67;2.53;;;20.00;46.90;;;;;;6158070;28;20027;-69
2021/03/08 06:58:18;;;;;;;3.25;2.63;;;20.00;46.90;;;;;;6166928;28;20389;-69
2021/03/08 07:01:32;;;;;;;2.97;2.37;;;20.00;46.90;;;;;;6163679;28;20484;-70
2021/03/08 07:04:33;;;;;;;4.03;2.70;;;20.00;47.00;;;;;;6176957;28;20023;-70
2021/03/08 07:07:51;;;;;;;3.55;2.30;;;20.00;47.00;;;;;;6182924;28;20037;-70
2021/03/08 07:10:52;;;;;;;4.53;2.60;;;20.00;47.00;;;;;;6174043;28;20409;-70
2021/03/08 07:13:54;;;;;;;4.15;2.95;;;20.00;47.70;;;;;;6194227;28;20062;-69
2021/03/08 07:16:54;;;;;;;2.75;2.15;;;20.00;47.00;;;;;;6177624;28;20088;-69
2021/03/08 07:19:56;;;;;;;4.78;2.72;;;20.00;47.00;;;;;;6189471;28;20038;-69
2021/03/08 07:22:56;;;;;;;3.95;2.75;;;20.00;47.10;;;;;;6194583;28;20041;-69
2021/03/08 07:26:14;;;;;;;3.63;2.67;;;20.00;47.10;;;;;;6195970;28;20050;-69
2021/03/08 07:29:16;;;;;;;4.10;2.88;;;20.00;47.80;;;;;;6195984;28;20125;-69
2021/03/08 07:32:16;;;;;;;6.10;2.83;;;20.00;47.10;;;;;;6195935;28;20023;-70
2021/03/08 07:35:17;;;;;;;3.75;2.78;;;20.00;47.10;;;;;;6196033;28;20045;-70
2021/03/08 07:38:27;;;;;;;3.80;2.70;;;20.00;47.20;;;;;;6195811;28;20489;-69
2021/03/08 07:41:27;;;;;;;5.18;2.78;;;20.00;47.20;;;;;;6196250;28;20442;-70
2021/03/08 07:44:30;;;;;;;3.33;2.53;;;20.00;47.20;;;;;;6195489;28;20033;-70
2021/03/08 07:47:30;;;;;;;4.13;2.70;;;20.00;47.20;;;;;;6196322;28;20033;-70
2021/03/08 07:50:31;;;;;;;3.30;2.40;;;20.00;47.20;;;;;;6195740;28;20038;-70
2021/03/08 07:53:32;;;;;;;4.65;2.85;;;20.00;47.20;;;;;;6195923;28;20504;-69
2021/03/08 07:56:34;;;;;;;5.18;3.03;;;20.00;47.20;;;;;;6195995;28;20030;-70
2021/03/08 07:59:35;;;;;;;3.15;2.70;;;20.00;47.20;;;;;;6195711;28;20592;-69
2021/03/08 08:02:36;;;;;;;3.47;2.63;;;20.00;47.20;;;;;;6195983;28;20061;-70
2021/03/08 08:05:37;;;;;;;5.07;2.50;;;20.00;47.20;;;;;;6195749;28;20113;-69
2021/03/08 08:08:44;;;;;;;3.60;2.55;;;20.00;47.20;;;;;;6199860;28;20041;-69
2021/03/08 08:11:45;;;;;;;3.53;2.60;;;20.00;47.20;;;;;;6185161;28;20027;-69
2021/03/08 08:14:47;;;;;;;2.97;2.40;;;20.00;47.20;;;;;;6164061;28;20065;-70
2021/03/08 08:17:50;;;;;;;3.22;2.67;;;20.00;47.40;;;;;;6199594;28;20062;-69
2021/03/08 08:20:52;;;;;;;3.28;2.40;;;20.00;47.20;;;;;;6200171;28;20048;-69
2021/03/08 08:24:00;;;;;;;4.30;2.55;;;20.00;47.20;;;;;;6200243;28;20026;-70
2021/03/08 08:27:01;;;;;;;3.63;2.35;;;20.00;47.20;;;;;;6200068;28;20516;-69
2021/03/08 08:30:03;;;;;;;4.25;2.80;;;20.00;47.20;;;;;;6199639;28;20038;-69
2021/03/08 08:33:04;;;;;;;3.33;2.60;;;20.00;47.20;;;;;;6199923;28;20528;-69
2021/03/08 08:36:24;;;;;;;3.80;2.80;;;20.00;47.20;;;;;;6199999;28;20121;-70
2021/03/08 08:39:24;;;;;;;6.85;2.60;;;20.00;47.20;;;;;;6199614;28;20026;-69
2021/03/08 08:42:27;;;;;;;5.60;2.53;;;20.00;47.20;;;;;;6199555;28;20061;-70
2021/03/08 08:45:31;;;;;;;3.08;2.38;;;20.00;47.20;;;;;;6199378;28;20472;-69
2021/03/08 08:48:31;;;;;;;4.63;2.70;;;20.00;47.20;;;;;;6199487;28;20085;-70
2021/03/08 08:51:52;;;;;;;4.38;2.45;;;20.00;47.20;;;;;;6199198;28;20030;-69
2021/03/08 08:54:53;;;;;;;3.78;2.35;;;20.00;47.20;;;;;;6199222;28;20409;-69
2021/03/08 08:58:16;;;;;;;3.15;2.30;;;20.00;47.20;;;;;;6199357;28;20415;-70
2021/03/08 09:01:28;;;;;;;3.83;2.65;;;20.00;47.20;;;;;;6199040;28;20034;-70
2021/03/08 09:04:35;;;;;;;3.92;2.70;;;20.00;47.20;;;;;;6199171;28;20026;-70
2021/03/08 09:07:36;;;;;;;3.55;2.40;;;20.00;47.30;;;;;;6198827;28;20058;-70
2021/03/08 09:10:36;;;;;;;4.10;2.60;;;20.00;47.20;;;;;;6198778;28;20040;-69
2021/03/08 09:13:37;;;;;;;2.95;2.08;;;20.00;47.20;;;;;;6199269;28;20478;-69
2021/03/08 09:16:41;;;;;;;4.00;2.42;;;20.00;47.20;;;;;;6198419;28;20137;-70
2021/03/08 09:19:43;;;;;;;4.32;2.58;;;20.00;47.20;;;;;;6198228;28;20030;-70
2021/03/08 09:22:52;;;;;;;3.05;2.45;;;20.00;47.20;;;;;;6198579;28;20109;-70
2021/03/08 09:25:56;;;;;;;4.13;2.85;;;20.00;47.20;;;;;;6198797;28;20597;-69
2021/03/08 09:28:57;;;;;;;3.92;2.70;;;20.00;47.20;;;;;;6198333;28;20108;-69
2021/03/08 09:31:57;;;;;;;3.95;2.72;;;20.00;47.20;;;;;;6198485;28;20110;-69
2021/03/08 09:35:06;;;;;;;3.58;2.50;;;20.00;47.30;;;;;;6198471;28;20027;-70
2021/03/08 09:38:13;;;;;;;4.55;2.72;;;20.00;47.20;;;;;;6197824;28;20034;-70
2021/03/08 09:41:14;;;;;;;3.50;2.40;;;20.00;47.30;;;;;;6198160;28;20026;-69
2021/03/08 09:44:14;;;;;;;3.65;2.58;;;20.00;47.20;;;;;;6198041;28;20370;-70
2021/03/08 09:47:16;;;;;;;2.70;2.20;;;20.00;47.20;;;;;;6194392;28;20061;-69
2021/03/08 09:50:23;;;;;;;4.30;2.78;;;20.00;47.20;;;;;;6197989;28;20038;-70
2021/03/08 09:53:31;;;;;;;3.55;2.50;;;20.00;47.20;;;;;;6164620;28;20027;-70
2021/03/08 09:56:31;;;;;;;2.55;2.08;;;20.00;47.30;;;;;;6160776;28;20064;-69
2021/03/08 09:59:54;;;;;;;3.40;2.50;;;20.00;47.20;;;;;;6161409;28;20038;-70
2021/03/08 10:03:03;;;;;;;3.40;2.55;;;20.00;47.30;;;;;;6179847;28;20080;-70
2021/03/08 10:06:04;;;;;;;3.00;2.20;;;20.00;47.30;;;;;;6194156;28;20532;-70
2021/03/08 10:09:22;;;;;;;2.90;2.40;;;20.00;47.30;;;;;;6179136;28;20070;-70
2021/03/08 10:12:23;;;;;;;3.20;2.47;;;20.00;47.30;;;;;;6183481;28;20103;-70
2021/03/08 10:15:24;;;;;;;3.05;2.40;;;20.00;47.30;;;;;;6190690;28;20034;-70
2021/03/08 10:18:27;;;;;;;3.97;2.60;;;20.00;47.30;;;;;;6196294;28;20493;-69
2021/03/08 10:21:28;;;;;;;3.38;2.50;;;20.00;47.30;;;;;;6197076;28;20018;-69
2021/03/08 10:24:37;;;;;;;2.90;2.35;;;20.00;47.30;;;;;;6196436;28;20033;-70
2021/03/08 10:27:37;;;;;;;2.72;2.10;;;20.00;47.30;;;;;;6195448;28;20027;-69
2021/03/08 10:30:38;;;;;;;3.25;2.33;;;20.00;47.30;;;;;;6189517;28;20406;-69
2021/03/08 10:33:38;;;;;;;3.45;2.50;;;20.00;47.30;;;;;;6187672;28;20026;-69
2021/03/08 10:36:42;;;;;;;3.13;2.13;;;20.00;47.30;;;;;;6196588;28;20117;-70
2021/03/08 10:39:43;;;;;;;2.58;2.30;;;20.00;47.30;;;;;;6194865;28;20414;-69
2021/03/08 10:42:44;;;;;;;9.45;2.47;;;20.00;47.40;;;;;;6196515;28;20033;-69
2021/03/08 10:45:48;;;;;;;19.33;2.40;;;20.00;47.90;;;;;;6196290;28;20034;-69
2021/03/08 10:48:55;;;;;;;5.97;2.50;;;20.10;47.50;;;;;;6193278;28;20061;-69
2021/03/08 10:52:08;;;;;;;4.40;2.53;;;20.10;47.50;;;;;;6190495;28;20110;-69
2021/03/08 10:55:09;;;;;;;2.78;1.95;;;20.10;47.60;;;;;;6186303;28;20026;-69
2021/03/08 10:58:11;;;;;;;5.15;2.63;;;20.10;47.60;;;;;;6182386;28;20037;-69
2021/03/08 11:01:11;;;;;;;4.28;2.00;;;20.00;47.50;;;;;;6178618;28;20106;-69
2021/03/08 11:04:24;;;;;;;3.92;2.55;;;20.10;47.60;;;;;;6182564;28;20030;-69
2021/03/08 11:07:32;;;;;;;2.85;2.00;;;20.00;47.50;;;;;;6195796;28;20029;-69
2021/03/08 11:10:38;;;;;;;5.75;2.47;;;20.00;47.50;;;;;;6195668;28;20421;-69
2021/03/08 11:13:38;;;;;;;4.80;2.08;;;20.00;47.50;;;;;;6185241;28;20041;-69
2021/03/08 11:16:51;;;;;;;4.32;2.45;;;20.00;47.50;;;;;;6194508;28;20054;-69
2021/03/08 11:20:04;;;;;;;3.50;2.45;;;20.00;47.50;;;;;;6194076;28;20130;-69
2021/03/08 11:23:06;;;;;;;3.65;2.05;;;20.00;47.50;;;;;;6186001;28;20037;-69
2021/03/08 11:26:10;;;;;;;4.13;2.50;;;20.00;47.50;;;;;;6175236;28;20102;-69
2021/03/08 11:29:25;;;;;;;3.83;2.25;;;20.00;47.50;;;;;;6185585;28;20022;-69
2021/03/08 11:32:27;;;;;;;;;;;20.00;47.50;;;;;;6196573;28;20032;-69
2021/03/08 11:35:31;;;;;;;4.20;2.22;;;20.10;47.50;;;;;;6195514;28;20000;-69
2021/03/08 11:38:31;;;;;;;3.45;2.13;;;20.10;47.50;;;;;;6189203;28;20058;-69
2021/03/08 11:41:43;;;;;;;2.67;1.92;;;20.00;47.40;;;;;;6189800;28;20417;-69
2021/03/08 11:44:45;;;;;;;4.45;2.10;;;20.00;47.50;;;;;;6186379;28;20022;-69
2021/03/08 11:47:53;;;;;;;2.15;1.90;;;20.00;47.50;;;;;;6178995;28;20031;-69
2021/03/08 11:50:55;;;;;;;2.47;1.90;;;20.00;47.50;;;;;;6193194;28;20062;-69
2021/03/08 11:53:55;;;;;;;2.80;1.88;;;20.00;47.50;;;;;;6184690;28;20710;-69
2021/03/08 11:56:56;;;;;;;3.83;2.40;;;20.00;47.50;;;;;;6196463;28;20038;-69
2021/03/08 11:59:56;;;;;;;3.20;2.15;;;20.00;47.50;;;;;;6190763;28;20109;-69
2021/03/08 12:02:57;;;;;;;7.60;3.08;;;20.00;47.50;;;;;;6189346;28;20034;-69
2021/03/08 12:05:57;;;;;;;3.05;1.90;;;20.00;47.50;;;;;;6187183;28;20054;-69
2021/03/08 12:08:58;;;;;;;2.88;1.95;;;20.00;47.50;;;;;;6199129;28;20572;-69
2021/03/08 12:12:00;;;;;;;3.45;2.15;;;20.00;47.50;;;;;;6176483;28;20532;-69
2021/03/08 12:15:01;;;;;;;2.97;2.13;;;20.00;47.50;;;;;;6171581;28;20481;-69
2021/03/08 12:18:01;;;;;;;3.05;2.17;;;20.00;47.50;;;;;;6196475;28;20084;-69
2021/03/08 12:21:03;;;;;;;2.78;2.05;;;20.00;47.50;;;;;;6195800;28;20026;-69
2021/03/08 12:24:03;;;;;;;2.58;2.03;;;20.00;47.50;;;;;;6180920;28;20034;-69
2021/03/08 12:27:04;;;;;;;2.47;1.75;;;20.00;47.50;;;;;;6192906;28;20034;-69
2021/03/08 12:30:06;;;;;;;2.63;2.10;;;20.00;47.50;;;;;;6183040;28;20115;-69
2021/03/08 12:33:06;;;;;;;2.47;1.83;;;20.00;47.60;;;;;;6198322;28;20034;-69
2021/03/08 12:36:08;;;;;;;2.65;2.03;;;20.00;47.60;;;;;;6177495;28;20440;-69
2021/03/08 12:39:08;;;;;;;2.80;1.73;;;20.00;47.60;;;;;;6151086;28;20027;-70
2021/03/08 12:42:09;;;;;;;3.13;1.90;;;20.00;47.50;;;;;;6189141;28;20053;-69
2021/03/08 12:45:10;;;;;;;5.25;2.30;;;20.00;47.50;;;;;;6180488;28;20735;-69
2021/03/08 12:48:11;;;;;;;3.60;2.03;;;20.00;47.60;;;;;;6184323;28;20038;-69
2021/03/08 12:51:11;;;;;;;3.55;2.03;;;20.00;47.60;;;;;;6187760;28;20620;-69
2021/03/08 12:54:12;;;;;;;2.65;1.67;;;20.00;47.50;;;;;;6196103;28;20533;-69
2021/03/08 12:57:12;;;;;;;3.38;1.95;;;20.00;47.60;;;;;;6193258;28;20042;-70
2021/03/08 13:00:13;;;;;;;4.00;2.30;;;20.00;47.50;;;;;;6184993;28;20022;-69
2021/03/08 13:03:14;;;;;;;2.67;1.80;;;20.00;47.50;;;;;;6198544;28;20103;-69
2021/03/08 13:06:16;;;;;;;3.92;2.25;;;20.00;47.50;;;;;;6197363;28;20128;-68
2021/03/08 13:09:16;;;;;;;2.30;1.85;;;20.00;47.50;;;;;;6198107;28;20657;-70
2021/03/08 13:12:17;;;;;;;2.83;1.83;;;20.00;47.50;;;;;;6198446;28;20033;-69
2021/03/08 13:15:17;;;;;;;6.20;1.85;;;20.00;47.50;;;;;;6199019;28;20393;-69
2021/03/08 13:18:19;;;;;;;6.05;2.28;;;20.00;47.50;;;;;;6197783;28;20026;-70
2021/03/08 13:21:20;;;;;;;3.25;1.88;;;20.00;47.50;;;;;;6195761;28;20029;-69
2021/03/08 13:24:21;;;;;;;5.10;1.90;;;20.00;47.50;;;;;;6192336;28;20030;-69
2021/03/08 13:27:21;;;;;;;3.28;1.98;;;20.00;47.60;;;;;;6190576;28;20026;-69
2021/03/08 13:30:22;;;;;;;3.78;1.80;;;20.00;47.60;;;;;;6193389;28;20680;-69
2021/03/08 13:33:23;;;;;;;3.30;1.85;;;20.00;47.60;;;;;;6184081;28;20134;-69
2021/03/08 13:36:23;;;;;;;5.30;1.95;;;20.00;47.60;;;;;;6191540;28;20500;-69
2021/03/08 13:39:24;;;;;;;8.18;2.67;;;20.00;47.60;;;;;;6189959;28;20034;-68
2021/03/08 13:42:25;;;;;;;5.70;1.88;;;20.00;47.60;;;;;;6188858;28;20433;-69
2021/03/08 13:45:25;;;;;;;4.43;2.00;;;20.00;47.60;;;;;;6192231;28;20748;-69
2021/03/08 13:48:26;;;;;;;5.70;2.05;;;20.00;47.60;;;;;;6191982;28;20026;-69
2021/03/08 13:51:26;;;;;;;3.67;1.70;;;20.00;47.60;;;;;;6192765;28;20404;-69
2021/03/08 13:54:27;;;;;;;3.90;1.85;;;20.00;47.60;;;;;;6188717;28;20526;-69
2021/03/08 13:57:28;;;;;;;2.53;1.80;;;20.00;47.60;;;;;;6183166;28;20039;-69
2021/03/08 14:00:28;;;;;;;4.22;1.63;;;20.00;47.60;;;;;;6183453;28;20030;-69
2021/03/08 14:03:29;;;;;;;8.02;2.00;;;20.00;47.60;;;;;;6185862;28;20037;-69
2021/03/08 14:06:29;;;;;;;9.50;2.00;;;20.00;47.60;;;;;;6185243;28;20125;-68
2021/03/08 14:09:30;;;;;;;3.95;2.00;;;20.00;47.60;;;;;;6181354;28;20038;-69
2021/03/08 14:12:30;;;;;;;4.93;1.98;;;20.00;47.60;;;;;;6210520;28;20073;-69
2021/03/08 14:15:31;;;;;;;2.97;1.60;;;20.00;47.60;;;;;;6197052;28;20018;-69
2021/03/08 14:18:32;;;;;;;4.30;1.85;;;20.00;48.40;;;;;;6187403;28;20470;-69
2021/03/08 14:21:33;;;;;;;1.98;1.58;;;20.00;47.60;;;;;;6171556;28;20030;-69
2021/03/08 14:24:33;;;;;;;3.95;1.70;;;20.00;47.60;;;;;;6196496;28;20697;-69
2021/03/08 14:27:34;;;;;;;3.50;1.88;;;20.00;47.60;;;;;;6196725;28;20054;-69
2021/03/08 14:30:35;;;;;;;4.25;1.60;;;20.00;47.60;;;;;;6196849;28;20113;-69
2021/03/08 14:33:36;;;;;;;7.10;2.13;;;20.00;47.60;;;;;;6195338;28;20026;-69
2021/03/08 14:36:36;;;;;;;3.72;1.77;;;20.00;47.60;;;;;;6196757;28;20041;-69
2021/03/08 14:39:38;;;;;;;8.63;1.73;;;20.00;47.60;;;;;;6182907;28;20022;-69
2021/03/08 14:42:38;;;;;;;4.20;1.90;;;20.00;47.60;;;;;;6196498;28;20565;-69
2021/03/08 14:45:39;;;;;;;4.30;1.88;;;20.00;47.70;;;;;;6194873;28;20036;-69
2021/03/08 14:48:40;;;;;;;3.95;1.92;;;20.00;47.70;;;;;;6194192;28;20022;-69
2021/03/08 14:51:40;;;;;;;3.13;1.95;;;20.00;47.60;;;;;;6193544;28;20152;-69
2021/03/08 14:54:41;;;;;;;2.42;1.85;;;20.00;47.70;;;;;;6191982;28;20030;-69
2021/03/08 14:57:41;;;;;;;8.23;2.15;;;20.00;47.60;;;;;;6193169;28;20473;-69
2021/03/08 15:00:44;;;;;;;3.75;2.08;;;20.00;47.70;;;;;;6195362;28;20030;-69
2021/03/08 15:03:44;;;;;;;6.00;1.90;;;20.00;47.70;;;;;;6194942;28;20465;-69
2021/03/08 15:06:45;;;;;;;2.33;1.60;;;20.00;47.70;;;;;;6195058;28;20069;-69
2021/03/08 15:09:45;;;;;;;3.20;1.63;;;20.00;47.70;;;;;;6193235;28;20042;-69
2021/03/08 15:12:46;;;;;;;3.20;1.80;;;20.00;47.70;;;;;;6195615;28;20030;-69
2021/03/08 15:15:46;;;;;;;3.17;1.70;;;19.90;47.50;;;;;;6193725;28;20052;-69
2021/03/08 15:18:47;;;;;;;2.38;1.30;;;19.90;44.70;;;;;;6194545;28;20033;-69
2021/03/08 15:21:47;;;;;;;3.53;1.50;;;19.80;43.10;;;;;;6153700;28;20398;-69
2021/03/08 15:24:48;;;;;;;13.73;1.98;;;19.80;42.50;;;;;;6193545;28;20088;-69
2021/03/08 15:27:48;;;;;;;2.20;1.48;;;19.80;43.00;;;;;;6193782;28;20065;-69
2021/03/08 15:30:49;;;;;;;3.67;1.67;;;19.80;41.90;;;;;;6194366;28;20109;-69
2021/03/08 15:33:50;;;;;;;2.40;1.10;;;19.80;43.20;;;;;;6194684;28;20504;-69
2021/03/08 15:36:50;;;;;;;3.53;1.00;;;19.80;41.50;;;;;;6191960;28;20402;-69
2021/03/08 15:39:51;;;;;;;2.28;1.13;;;19.70;39.40;;;;;;6194224;28;20033;-69
2021/03/08 15:42:51;;;;;;;2.15;1.00;;;19.70;39.70;;;;;;6195132;28;20105;-69
2021/03/08 15:45:52;;;;;;;2.70;1.00;;;19.70;39.20;;;;;;6194156;28;20045;-69
2021/03/08 15:48:52;;;;;;;2.25;0.90;;;19.70;38.60;;;;;;6193224;28;20114;-69
2021/03/08 15:51:53;;;;;;;3.38;1.05;;;19.70;39.70;;;;;;6189382;28;20030;-69
2021/03/08 15:54:53;;;;;;;2.72;1.08;;;19.70;38.50;;;;;;6183808;28;20029;-69